Station Historical Data
Daily Summary for November 26, 2017 Units:  English    Metric   Both
« Previous Day
Next Day »
Daily Weekly Monthly Yearly Custom
  High: Low: Average:
Temperature: 43.3 °F 33.1 °F 36.5 °F
Dew Point: 35.0 °F 23.2 °F 27.6 °F
Humidity: 83% 63% 70%
Wind Speed: 22.0mph 1.0mph 8mph
Wind Gust: 35.0mph - -
Wind- - West
Pressure: 30.13 in 29.91 in -
Precipitation: 0.00 in    
Historical Graphs
 
 
Tabular Data for November 26, 2017
Time Temperature Dew Point Pressure Wind Wind Speed Wind Gust Humidity Rainfall Rate (Hourly)
00:04 35.9 °F 31.2 °F 29.91 in WNW 7.0 mph 12.0 mph 83% 0.01 in
00:09 35.7 °F 31.0 °F 29.91 in WNW 6.0 mph 12.0 mph 83% 0.01 in
00:14 35.5 °F 30.5 °F 29.91 in WNW 6.0 mph 12.0 mph 82% 0.01 in
00:19 35.5 °F 30.5 °F 29.91 in WNW 6.0 mph 14.0 mph 82% 0.00 in
00:24 35.6 °F 30.3 °F 29.91 in WNW 6.0 mph 14.0 mph 81% 0.00 in
00:29 35.7 °F 30.4 °F 29.91 in WNW 6.0 mph 12.0 mph 81% 0.00 in
00:39 35.6 °F 30.0 °F 29.91 in West 8.0 mph 10.0 mph 80% 0.00 in
00:44 35.5 °F 29.6 °F 29.91 in West 9.0 mph 18.0 mph 79% 0.00 in
00:49 35.6 °F 29.7 °F 29.92 in West 7.0 mph 14.0 mph 79% 0.00 in
00:54 35.6 °F 29.7 °F 29.92 in NW 10.0 mph 16.0 mph 79% 0.00 in
00:59 35.6 °F 29.4 °F 29.92 in WNW 8.0 mph 17.0 mph 78% 0.00 in
01:05 35.5 °F 29.3 °F 29.92 in WNW 7.0 mph 17.0 mph 78% 0.00 in
01:10 35.4 °F 29.2 °F 29.92 in WNW 7.0 mph 16.0 mph 78% 0.00 in
01:15 35.3 °F 29.1 °F 29.92 in WNW 8.0 mph 16.0 mph 78% 0.00 in
01:20 35.3 °F 28.8 °F 29.93 in West 8.0 mph 16.0 mph 77% 0.00 in
01:25 35.2 °F 28.7 °F 29.93 in West 10.0 mph 20.0 mph 77% 0.00 in
01:30 35.0 °F 27.9 °F 29.94 in West 9.0 mph 19.0 mph 75% 0.00 in
01:35 34.7 °F 27.3 °F 29.95 in West 3.0 mph 14.0 mph 74% 0.00 in
01:40 34.6 °F 27.2 °F 29.95 in WNW 7.0 mph 13.0 mph 74% 0.00 in
01:45 34.3 °F 26.9 °F 29.95 in West 8.0 mph 12.0 mph 74% 0.00 in
01:50 34.0 °F 26.6 °F 29.95 in West 7.0 mph 12.0 mph 74% 0.00 in
01:55 34.0 °F 26.6 °F 29.95 in WNW 8.0 mph 21.0 mph 74% 0.00 in
02:00 33.8 °F 26.1 °F 29.96 in WNW 8.0 mph 21.0 mph 73% 0.00 in
02:05 33.7 °F 26.0 °F 29.96 in West 7.0 mph 16.0 mph 73% 0.00 in
02:10 33.7 °F 26.0 °F 29.96 in West 6.0 mph 17.0 mph 73% 0.00 in
02:15 33.7 °F 26.0 °F 29.96 in West 8.0 mph 17.0 mph 73% 0.00 in
02:20 33.6 °F 25.9 °F 29.96 in West 7.0 mph 16.0 mph 73% 0.00 in
02:25 33.5 °F 25.8 °F 29.96 in WNW 10.0 mph 17.0 mph 73% 0.00 in
02:30 33.4 °F 25.7 °F 29.96 in WSW 6.0 mph 12.0 mph 73% 0.00 in
02:35 33.4 °F 25.7 °F 29.97 in WNW 4.0 mph 13.0 mph 73% 0.00 in
02:40 33.4 °F 26.0 °F 29.97 in West 8.0 mph 15.0 mph 74% 0.00 in
02:45 33.4 °F 26.0 °F 29.97 in West 7.0 mph 15.0 mph 74% 0.00 in
02:50 33.4 °F 26.0 °F 29.97 in West 6.0 mph 15.0 mph 74% 0.00 in
02:55 33.4 °F 26.0 °F 29.98 in West 6.0 mph 14.0 mph 74% 0.00 in
03:00 33.3 °F 25.6 °F 29.97 in West 7.0 mph 14.0 mph 73% 0.00 in
03:05 33.3 °F 25.9 °F 29.97 in WSW 8.0 mph 13.0 mph 74% 0.00 in
03:10 33.3 °F 25.6 °F 29.97 in West 4.0 mph 12.0 mph 73% 0.00 in
03:15 33.3 °F 25.9 °F 29.98 in West 5.0 mph 11.0 mph 74% 0.00 in
03:20 33.3 °F 25.9 °F 29.98 in West 7.0 mph 16.0 mph 74% 0.00 in
03:30 33.4 °F 26.0 °F 29.99 in SW 5.0 mph 15.0 mph 74% 0.00 in
03:35 33.4 °F 26.0 °F 29.99 in WSW 10.0 mph 15.0 mph 74% 0.00 in
03:40 33.4 °F 26.0 °F 30.00 in West 8.0 mph 13.0 mph 74% 0.00 in
03:45 33.4 °F 25.7 °F 30.00 in West 8.0 mph 15.0 mph 73% 0.00 in
03:50 33.3 °F 25.9 °F 30.00 in West 5.0 mph 12.0 mph 74% 0.00 in
03:55 33.3 °F 25.9 °F 30.00 in West 6.0 mph 18.0 mph 74% 0.00 in
04:00 33.4 °F 26.0 °F 30.00 in West 7.0 mph 18.0 mph 74% 0.00 in
04:05 33.3 °F 25.9 °F 30.01 in WNW 7.0 mph 15.0 mph 74% 0.00 in
04:10 33.3 °F 25.9 °F 30.01 in West 6.0 mph 16.0 mph 74% 0.00 in
04:15 33.3 °F 25.6 °F 30.01 in West 7.0 mph 16.0 mph 73% 0.00 in
04:20 33.3 °F 25.6 °F 30.01 in West 8.0 mph 13.0 mph 73% 0.00 in
04:25 33.3 °F 25.6 °F 30.01 in West 10.0 mph 14.0 mph 73% 0.00 in
04:30 33.3 °F 25.6 °F 30.01 in WSW 3.0 mph 14.0 mph 73% 0.00 in
04:35 33.2 °F 25.5 °F 30.01 in SSW 3.0 mph 13.0 mph 73% 0.00 in
04:40 33.2 °F 25.5 °F 30.01 in West 4.0 mph 15.0 mph 73% 0.00 in
04:45 33.2 °F 25.5 °F 30.02 in West 6.0 mph 17.0 mph 73% 0.00 in
04:50 33.2 °F 25.5 °F 30.02 in West 4.0 mph 11.0 mph 73% 0.00 in
04:55 33.2 °F 25.5 °F 30.02 in West 6.0 mph 14.0 mph 73% 0.00 in
05:00 33.2 °F 25.5 °F 30.03 in West 6.0 mph 15.0 mph 73% 0.00 in
05:05 33.2 °F 25.8 °F 30.03 in West 6.0 mph 15.0 mph 74% 0.00 in
05:10 33.2 °F 25.8 °F 30.03 in West 6.0 mph 14.0 mph 74% 0.00 in
05:15 33.1 °F 25.7 °F 30.04 in West 7.0 mph 13.0 mph 74% 0.00 in
05:20 33.1 °F 25.7 °F 30.04 in West 7.0 mph 13.0 mph 74% 0.00 in
05:25 33.2 °F 25.8 °F 30.04 in West 7.0 mph 12.0 mph 74% 0.00 in
05:30 33.2 °F 25.8 °F 30.04 in West 5.0 mph 15.0 mph 74% 0.00 in
05:35 33.2 °F 25.8 °F 30.04 in West 7.0 mph 10.0 mph 74% 0.00 in
05:40 33.1 °F 25.7 °F 30.04 in WSW 6.0 mph 10.0 mph 74% 0.00 in
05:45 33.1 °F 25.4 °F 30.05 in NNW 4.0 mph 12.0 mph 73% 0.00 in
05:50 33.1 °F 25.7 °F 30.05 in West 4.0 mph 11.0 mph 74% 0.00 in
05:55 33.1 °F 25.7 °F 30.05 in WNW 7.0 mph 9.0 mph 74% 0.00 in
06:00 33.1 °F 25.7 °F 30.05 in West 5.0 mph 12.0 mph 74% 0.00 in
06:05 33.2 °F 25.5 °F 30.06 in West 6.0 mph 12.0 mph 73% 0.00 in
06:10 33.2 °F 25.5 °F 30.05 in West 7.0 mph 12.0 mph 73% 0.00 in
06:15 33.2 °F 25.5 °F 30.05 in West 7.0 mph 15.0 mph 73% 0.00 in
06:20 33.3 °F 25.6 °F 30.05 in SW 9.0 mph 12.0 mph 73% 0.00 in
06:25 33.2 °F 25.5 °F 30.05 in West 10.0 mph 13.0 mph 73% 0.00 in
06:29 33.2 °F 25.5 °F 30.06 in WNW 6.0 mph 14.0 mph 73% 0.00 in
06:35 33.2 °F 25.5 °F 30.06 in WNW 4.0 mph 7.0 mph 73% 0.00 in
06:40 33.2 °F 25.5 °F 30.06 in West 4.0 mph 9.0 mph 73% 0.00 in
06:45 33.2 °F 25.5 °F 30.06 in West 3.0 mph 8.0 mph 73% 0.00 in
06:50 33.3 °F 25.6 °F 30.06 in West 8.0 mph 10.0 mph 73% 0.00 in
07:00 33.4 °F 25.3 °F 30.06 in West 5.0 mph 11.0 mph 72% 0.00 in
07:05 33.3 °F 25.2 °F 30.06 in West 5.0 mph 11.0 mph 72% 0.00 in
07:10 33.4 °F 25.3 °F 30.06 in West 5.0 mph 11.0 mph 72% 0.00 in
07:15 33.5 °F 25.1 °F 30.06 in West 6.0 mph 12.0 mph 71% 0.00 in
07:20 33.5 °F 25.1 °F 30.06 in West 6.0 mph 12.0 mph 71% 0.00 in
07:25 33.5 °F 24.8 °F 30.07 in West 6.0 mph 12.0 mph 70% 0.00 in
07:30 33.5 °F 24.8 °F 30.07 in West 12.0 mph 12.0 mph 70% 0.00 in
07:34 33.5 °F 24.8 °F 30.07 in West 4.0 mph 14.0 mph 70% 0.00 in
07:40 33.6 °F 24.9 °F 30.07 in WSW 3.0 mph 9.0 mph 70% 0.00 in
07:45 33.5 °F 24.8 °F 30.07 in WSW 7.0 mph 13.0 mph 70% 0.00 in
07:50 33.5 °F 24.4 °F 30.08 in WSW 2.0 mph 11.0 mph 69% 0.00 in
07:55 33.5 °F 24.4 °F 30.08 in SW 9.0 mph 11.0 mph 69% 0.00 in
08:00 33.5 °F 24.4 °F 30.08 in West 6.0 mph 12.0 mph 69% 0.00 in
08:05 33.5 °F 24.4 °F 30.09 in West 7.0 mph 12.0 mph 69% 0.00 in
08:10 33.6 °F 24.2 °F 30.09 in West 6.0 mph 13.0 mph 68% 0.00 in
08:15 33.6 °F 24.2 °F 30.09 in West 7.0 mph 14.0 mph 68% 0.00 in
08:20 33.7 °F 24.3 °F 30.09 in West 7.0 mph 14.0 mph 68% 0.00 in
08:25 33.7 °F 24.3 °F 30.09 in West 7.0 mph 14.0 mph 68% 0.00 in
08:30 33.7 °F 24.3 °F 30.09 in WNW 7.0 mph 14.0 mph 68% 0.00 in
08:34 33.7 °F 23.9 °F 30.09 in WSW 5.0 mph 14.0 mph 67% 0.00 in
08:39 33.7 °F 23.9 °F 30.09 in WNW 6.0 mph 9.0 mph 67% 0.00 in
08:45 33.7 °F 23.9 °F 30.09 in West 5.0 mph 10.0 mph 67% 0.00 in
08:50 33.8 °F 24.0 °F 30.09 in West 6.0 mph 10.0 mph 67% 0.00 in
08:54 33.8 °F 24.0 °F 30.09 in WNW 5.0 mph 12.0 mph 67% 0.00 in
09:00 33.8 °F 23.6 °F 30.09 in West 6.0 mph 16.0 mph 66% 0.00 in
09:04 33.8 °F 23.6 °F 30.09 in West 7.0 mph 16.0 mph 66% 0.00 in
09:10 33.8 °F 24.0 °F 30.09 in West 6.0 mph 13.0 mph 67% 0.00 in
09:15 33.9 °F 24.1 °F 30.10 in West 6.0 mph 10.0 mph 67% 0.00 in
09:20 33.9 °F 24.1 °F 30.10 in WSW 4.0 mph 10.0 mph 67% 0.00 in
09:25 33.9 °F 23.7 °F 30.10 in WNW 4.0 mph 14.0 mph 66% 0.00 in
09:30 33.9 °F 23.7 °F 30.10 in West 5.0 mph 11.0 mph 66% 0.00 in
09:34 34.0 °F 24.2 °F 30.11 in West 5.0 mph 12.0 mph 67% 0.00 in
09:40 33.9 °F 23.7 °F 30.11 in West 6.0 mph 15.0 mph 66% 0.00 in
09:45 33.8 °F 23.6 °F 30.12 in WSW 8.0 mph 15.0 mph 66% 0.00 in
09:49 33.8 °F 24.0 °F 30.12 in West 5.0 mph 12.0 mph 67% 0.00 in
09:55 33.8 °F 24.0 °F 30.12 in West 6.0 mph 9.0 mph 67% 0.00 in
09:59 33.9 °F 24.1 °F 30.12 in West 6.0 mph 11.0 mph 67% 0.00 in
10:04 33.8 °F 23.6 °F 30.12 in West 6.0 mph 12.0 mph 66% 0.00 in
10:09 33.8 °F 23.6 °F 30.12 in West 7.0 mph 14.0 mph 66% 0.00 in
10:14 33.9 °F 23.7 °F 30.12 in West 8.0 mph 14.0 mph 66% 0.00 in
10:20 33.9 °F 23.7 °F 30.13 in WNW 9.0 mph 11.0 mph 66% 0.00 in
10:25 33.7 °F 23.2 °F 30.13 in West 9.0 mph 14.0 mph 65% 0.00 in
10:30 33.6 °F 23.4 °F 30.13 in WNW 8.0 mph 15.0 mph 66% 0.00 in
10:34 33.7 °F 23.2 °F 30.13 in West 7.0 mph 15.0 mph 65% 0.00 in
10:39 33.7 °F 23.2 °F 30.13 in West 6.0 mph 14.0 mph 65% 0.00 in
10:45 33.9 °F 23.4 °F 30.12 in WNW 6.0 mph 14.0 mph 65% 0.00 in
10:50 33.8 °F 23.3 °F 30.12 in WNW 6.0 mph 14.0 mph 65% 0.00 in
10:54 33.9 °F 23.7 °F 30.12 in WNW 8.0 mph 10.0 mph 66% 0.00 in
10:59 33.7 °F 23.5 °F 30.12 in West 7.0 mph 11.0 mph 66% 0.00 in
11:04 33.7 °F 23.5 °F 30.12 in WNW 6.0 mph 11.0 mph 66% 0.00 in
11:10 33.7 °F 23.5 °F 30.11 in West 6.0 mph 11.0 mph 66% 0.00 in
11:14 33.9 °F 23.7 °F 30.10 in West 4.0 mph 9.0 mph 66% 0.00 in
11:24 34.2 °F 24.4 °F 30.09 in NW 3.0 mph 9.0 mph 67% 0.00 in
11:30 34.3 °F 24.5 °F 30.09 in WNW 6.0 mph 9.0 mph 67% 0.00 in
11:35 34.1 °F 23.9 °F 30.09 in WSW 5.0 mph 10.0 mph 66% 0.00 in
11:39 34.2 °F 24.0 °F 30.09 in West 5.0 mph 11.0 mph 66% 0.00 in
11:44 34.3 °F 24.5 °F 30.09 in West 5.0 mph 11.0 mph 67% 0.00 in
11:49 34.3 °F 24.1 °F 30.08 in West 5.0 mph 10.0 mph 66% 0.00 in
11:55 34.3 °F 24.1 °F 30.08 in West 6.0 mph 11.0 mph 66% 0.00 in
11:59 34.3 °F 24.1 °F 30.08 in West 6.0 mph 9.0 mph 66% 0.00 in
12:05 34.5 °F 24.3 °F 30.08 in WNW 3.0 mph 12.0 mph 66% 0.00 in
12:09 34.6 °F 24.4 °F 30.08 in WSW 5.0 mph 12.0 mph 66% 0.00 in
12:15 35.2 °F 25.3 °F 30.07 in West 4.0 mph 8.0 mph 67% 0.00 in
12:19 35.4 °F 25.2 °F 30.07 in WNW 4.0 mph 9.0 mph 66% 0.00 in
12:24 35.4 °F 25.2 °F 30.07 in NNW 3.0 mph 9.0 mph 66% 0.00 in
12:29 35.4 °F 25.2 °F 30.06 in WNW 7.0 mph 9.0 mph 66% 0.00 in
12:35 35.3 °F 25.1 °F 30.07 in WNW 5.0 mph 9.0 mph 66% 0.00 in
12:39 35.3 °F 25.1 °F 30.07 in West 5.0 mph 11.0 mph 66% 0.00 in
12:44 35.1 °F 25.2 °F 30.06 in West 5.0 mph 11.0 mph 67% 0.00 in
12:50 35.0 °F 25.1 °F 30.06 in West 6.0 mph 12.0 mph 67% 0.00 in
12:54 34.8 °F 25.0 °F 30.06 in West 6.0 mph 12.0 mph 67% 0.00 in
13:00 34.8 °F 25.3 °F 30.05 in West 1.0 mph 11.0 mph 68% 0.00 in
13:05 34.8 °F 25.3 °F 30.05 in West 5.0 mph 11.0 mph 68% 0.00 in
13:09 34.8 °F 25.7 °F 30.04 in West 3.0 mph 9.0 mph 69% 0.00 in
13:14 35.1 °F 25.9 °F 30.04 in WSW 5.0 mph 11.0 mph 69% 0.00 in
13:19 35.0 °F 25.9 °F 30.04 in SW 10.0 mph 10.0 mph 69% 0.00 in
13:24 34.9 °F 25.8 °F 30.03 in WSW 7.0 mph 11.0 mph 69% 0.00 in
13:29 35.0 °F 26.2 °F 30.03 in WSW 3.0 mph 10.0 mph 70% 0.00 in
13:35 35.4 °F 26.6 °F 30.03 in WNW 3.0 mph 8.0 mph 70% 0.00 in
13:40 35.7 °F 26.5 °F 30.03 in West 6.0 mph 12.0 mph 69% 0.00 in
13:44 35.7 °F 26.5 °F 30.02 in West 5.0 mph 14.0 mph 69% 0.00 in
13:49 35.7 °F 26.9 °F 30.02 in WSW 5.0 mph 14.0 mph 70% 0.00 in
13:54 35.9 °F 27.1 °F 30.02 in WSW 6.0 mph 13.0 mph 70% 0.00 in
14:00 36.1 °F 27.3 °F 30.02 in WSW 7.0 mph 16.0 mph 70% 0.00 in
14:05 36.3 °F 27.1 °F 30.01 in WSW 8.0 mph 17.0 mph 69% 0.00 in
14:09 36.6 °F 27.0 °F 30.01 in WSW 8.0 mph 20.0 mph 68% 0.00 in
14:14 36.7 °F 26.8 °F 30.01 in WSW 9.0 mph 16.0 mph 67% 0.00 in
14:19 36.6 °F 26.3 °F 30.01 in WSW 8.0 mph 19.0 mph 66% 0.00 in
14:24 36.4 °F 26.1 °F 30.01 in West 17.0 mph 20.0 mph 66% 0.00 in
14:29 36.3 °F 26.4 °F 30.00 in SW 10.0 mph 18.0 mph 67% 0.00 in
14:34 36.2 °F 26.3 °F 30.00 in West 11.0 mph 15.0 mph 67% 0.00 in
14:40 36.2 °F 26.6 °F 30.00 in West 14.0 mph 20.0 mph 68% 0.00 in
14:44 36.2 °F 26.3 °F 30.00 in WSW 10.0 mph 20.0 mph 67% 0.00 in
14:49 36.1 °F 26.6 °F 30.00 in WSW 9.0 mph 19.0 mph 68% 0.00 in
14:54 36.1 °F 26.6 °F 29.99 in WSW 8.0 mph 15.0 mph 68% 0.00 in
14:59 36.4 °F 27.2 °F 29.99 in WSW 7.0 mph 13.0 mph 69% 0.00 in
15:05 36.5 °F 27.3 °F 29.99 in WSW 9.0 mph 21.0 mph 69% 0.00 in
15:10 36.7 °F 27.8 °F 29.99 in WSW 10.0 mph 21.0 mph 70% 0.00 in
15:14 36.8 °F 27.9 °F 29.99 in West 4.0 mph 16.0 mph 70% 0.00 in
15:19 36.9 °F 28.0 °F 29.99 in West 11.0 mph 20.0 mph 70% 0.00 in
15:24 37.0 °F 28.5 °F 29.99 in WSW 10.0 mph 16.0 mph 71% 0.00 in
15:29 37.0 °F 28.5 °F 29.99 in West 11.0 mph 18.0 mph 71% 0.00 in
15:34 37.0 °F 28.5 °F 29.99 in SW 7.0 mph 15.0 mph 71% 0.00 in
15:39 37.0 °F 28.5 °F 29.98 in West 9.0 mph 18.0 mph 71% 0.00 in
15:44 37.1 °F 28.2 °F 29.98 in SW 7.0 mph 20.0 mph 70% 0.00 in
15:49 37.2 °F 28.3 °F 29.98 in WSW 10.0 mph 20.0 mph 70% 0.00 in
15:54 37.4 °F 28.5 °F 29.97 in WSW 9.0 mph 23.0 mph 70% 0.00 in
15:59 37.7 °F 28.8 °F 29.97 in WSW 9.0 mph 23.0 mph 70% 0.00 in
16:04 37.9 °F 29.0 °F 29.97 in WSW 9.0 mph 24.0 mph 70% 0.00 in
16:10 38.2 °F 29.3 °F 29.97 in WSW 10.0 mph 24.0 mph 70% 0.00 in
16:14 38.4 °F 29.8 °F 29.97 in WSW 6.0 mph 18.0 mph 71% 0.00 in
16:19 38.4 °F 29.5 °F 29.97 in WSW 9.0 mph 18.0 mph 70% 0.00 in
16:25 38.6 °F 28.9 °F 29.97 in WSW 10.0 mph 22.0 mph 68% 0.00 in
16:29 38.7 °F 29.0 °F 29.97 in WSW 15.0 mph 20.0 mph 68% 0.00 in
16:34 38.7 °F 29.0 °F 29.97 in WSW 6.0 mph 23.0 mph 68% 0.00 in
16:39 38.6 °F 28.6 °F 29.97 in WSW 10.0 mph 26.0 mph 67% 0.00 in
16:44 38.5 °F 28.9 °F 29.97 in SW 12.0 mph 24.0 mph 68% 0.00 in
16:49 38.5 °F 28.9 °F 29.97 in West 13.0 mph 29.0 mph 68% 0.00 in
16:54 38.5 °F 28.9 °F 29.97 in WSW 13.0 mph 29.0 mph 68% 0.00 in
16:59 38.4 °F 28.8 °F 29.97 in WSW 14.0 mph 26.0 mph 68% 0.00 in
17:04 38.4 °F 29.1 °F 29.97 in WSW 13.0 mph 26.0 mph 69% 0.00 in
17:09 38.3 °F 29.0 °F 29.97 in West 16.0 mph 22.0 mph 69% 0.00 in
17:14 38.2 °F 28.9 °F 29.97 in West 11.0 mph 26.0 mph 69% 0.00 in
17:19 38.1 °F 28.8 °F 29.97 in WSW 12.0 mph 26.0 mph 69% 0.00 in
17:24 38.1 °F 28.8 °F 29.97 in West 11.0 mph 18.0 mph 69% 0.00 in
17:29 38.2 °F 28.9 °F 29.97 in South 14.0 mph 21.0 mph 69% 0.00 in
17:34 38.3 °F 29.0 °F 29.97 in West 8.0 mph 22.0 mph 69% 0.00 in
17:39 38.5 °F 29.6 °F 29.96 in West 16.0 mph 27.0 mph 70% 0.00 in
17:44 38.6 °F 29.3 °F 29.96 in WSW 14.0 mph 23.0 mph 69% 0.00 in
17:49 38.7 °F 29.4 °F 29.96 in WSW 11.0 mph 23.0 mph 69% 0.00 in
17:54 38.9 °F 29.9 °F 29.96 in WSW 10.0 mph 19.0 mph 70% 0.00 in
17:59 38.9 °F 29.6 °F 29.96 in WSW 10.0 mph 21.0 mph 69% 0.00 in
18:04 39.0 °F 29.7 °F 29.96 in WSW 11.0 mph 23.0 mph 69% 0.00 in
18:09 39.0 °F 29.3 °F 29.95 in WSW 5.0 mph 22.0 mph 68% 0.00 in
18:14 39.1 °F 29.8 °F 29.95 in SW 13.0 mph 20.0 mph 69% 0.00 in
18:19 39.3 °F 30.3 °F 29.95 in WSW 11.0 mph 21.0 mph 70% 0.00 in
18:24 39.4 °F 30.1 °F 29.95 in WNW 13.0 mph 22.0 mph 69% 0.00 in
18:29 39.4 °F 29.7 °F 29.95 in SSW 14.0 mph 27.0 mph 68% 0.00 in
18:34 39.5 °F 29.8 °F 29.94 in West 10.0 mph 21.0 mph 68% 0.00 in
18:39 39.5 °F 30.2 °F 29.94 in WSW 19.0 mph 19.0 mph 69% 0.00 in
18:44 39.6 °F 30.3 °F 29.95 in SW 10.0 mph 19.0 mph 69% 0.00 in
18:49 39.7 °F 30.7 °F 29.94 in WSW 12.0 mph 26.0 mph 70% 0.00 in
18:54 39.8 °F 30.8 °F 29.93 in WSW 13.0 mph 26.0 mph 70% 0.00 in
19:04 39.9 °F 31.3 °F 29.93 in WSW 12.0 mph 23.0 mph 71% 0.00 in
19:09 40.0 °F 31.4 °F 29.93 in WSW 12.0 mph 30.0 mph 71% 0.00 in
19:14 40.0 °F 31.4 °F 29.93 in WSW 16.0 mph 20.0 mph 71% 0.00 in
19:19 40.1 °F 31.4 °F 29.93 in WSW 11.0 mph 21.0 mph 71% 0.00 in
19:24 40.3 °F 31.6 °F 29.93 in WSW 11.0 mph 21.0 mph 71% 0.00 in
19:29 40.4 °F 31.7 °F 29.93 in SW 17.0 mph 25.0 mph 71% 0.00 in
19:34 40.6 °F 31.9 °F 29.93 in WNW 6.0 mph 35.0 mph 71% 0.00 in
19:39 40.8 °F 31.8 °F 29.92 in North 11.0 mph 28.0 mph 70% 0.00 in
19:44 40.9 °F 32.2 °F 29.92 in SW 22.0 mph 23.0 mph 71% 0.00 in
19:49 41.1 °F 32.4 °F 29.92 in WSW 13.0 mph 27.0 mph 71% 0.00 in
19:54 41.3 °F 32.2 °F 29.93 in WSW 14.0 mph 27.0 mph 70% 0.00 in
19:59 41.5 °F 32.8 °F 29.93 in WNW 5.0 mph 20.0 mph 71% 0.00 in
20:04 41.7 °F 33.0 °F 29.93 in SW 8.0 mph 24.0 mph 71% 0.00 in
20:09 41.9 °F 33.2 °F 29.94 in West 12.0 mph 24.0 mph 71% 0.00 in
20:14 42.0 °F 33.3 °F 29.93 in WSW 12.0 mph 28.0 mph 71% 0.00 in
20:19 42.2 °F 33.5 °F 29.93 in WSW 12.0 mph 28.0 mph 71% 0.00 in
20:24 42.3 °F 33.2 °F 29.92 in WSW 13.0 mph 23.0 mph 70% 0.00 in
20:29 42.5 °F 33.4 °F 29.93 in WSW 16.0 mph 26.0 mph 70% 0.00 in
20:34 42.5 °F 33.8 °F 29.93 in SW 11.0 mph 23.0 mph 71% 0.00 in
20:39 42.6 °F 33.9 °F 29.92 in West 19.0 mph 21.0 mph 71% 0.00 in
20:44 42.7 °F 33.9 °F 29.93 in West 8.0 mph 22.0 mph 71% 0.00 in
20:49 42.7 °F 33.9 °F 29.93 in WSW 11.0 mph 22.0 mph 71% 0.00 in
20:54 42.7 °F 33.9 °F 29.93 in WNW 10.0 mph 26.0 mph 71% 0.00 in
20:59 42.8 °F 33.7 °F 29.93 in WSW 12.0 mph 24.0 mph 70% 0.00 in
21:04 42.9 °F 33.8 °F 29.93 in WSW 5.0 mph 21.0 mph 70% 0.00 in
21:09 42.9 °F 34.1 °F 29.93 in WSW 8.0 mph 18.0 mph 71% 0.00 in
21:14 42.7 °F 34.3 °F 29.93 in West 12.0 mph 18.0 mph 72% 0.00 in
21:19 42.5 °F 34.8 °F 29.93 in WSW 9.0 mph 18.0 mph 74% 0.00 in
21:24 42.4 °F 35.0 °F 29.93 in WSW 8.0 mph 17.0 mph 75% 0.00 in
21:29 42.4 °F 35.0 °F 29.92 in WSW 9.0 mph 18.0 mph 75% 0.00 in
21:34 42.7 °F 34.6 °F 29.93 in WSW 11.0 mph 21.0 mph 73% 0.00 in
21:39 42.9 °F 34.5 °F 29.93 in West 10.0 mph 21.0 mph 72% 0.00 in
21:44 43.1 °F 34.3 °F 29.93 in SW 11.0 mph 19.0 mph 71% 0.00 in
21:49 43.2 °F 34.4 °F 29.93 in WSW 15.0 mph 16.0 mph 71% 0.00 in
21:54 43.2 °F 34.1 °F 29.93 in WNW 11.0 mph 18.0 mph 70% 0.00 in
21:59 43.2 °F 34.1 °F 29.93 in WSW 14.0 mph 19.0 mph 70% 0.00 in
22:04 43.3 °F 34.2 °F 29.93 in WNW 7.0 mph 20.0 mph 70% 0.00 in
22:09 43.2 °F 34.1 °F 29.93 in SW 10.0 mph 14.0 mph 70% 0.00 in
22:14 43.2 °F 33.7 °F 29.93 in NW 10.0 mph 18.0 mph 69% 0.00 in
22:19 43.2 °F 33.3 °F 29.93 in West 9.0 mph 19.0 mph 68% 0.00 in
22:24 43.2 °F 33.0 °F 29.93 in West 9.0 mph 20.0 mph 67% 0.00 in
22:29 43.2 °F 33.0 °F 29.93 in West 8.0 mph 20.0 mph 67% 0.00 in
22:39 43.1 °F 32.1 °F 29.94 in West 10.0 mph 20.0 mph 65% 0.00 in
22:44 43.0 °F 32.0 °F 29.94 in West 10.0 mph 20.0 mph 65% 0.00 in
22:49 43.0 °F 31.6 °F 29.94 in WSW 7.0 mph 17.0 mph 64% 0.00 in
22:54 42.8 °F 31.5 °F 29.94 in WNW 10.0 mph 16.0 mph 64% 0.00 in
22:59 42.8 °F 31.1 °F 29.94 in West 9.0 mph 22.0 mph 63% 0.00 in
23:09 42.4 °F 30.7 °F 29.93 in SW 13.0 mph 23.0 mph 63% 0.00 in
23:14 42.2 °F 30.5 °F 29.94 in West 7.0 mph 18.0 mph 63% 0.00 in
23:19 42.0 °F 30.3 °F 29.93 in WNW 13.0 mph 13.0 mph 63% 0.00 in
23:24 41.8 °F 30.1 °F 29.94 in West 7.0 mph 14.0 mph 63% 0.00 in
23:29 41.6 °F 29.9 °F 29.94 in West 8.0 mph 14.0 mph 63% 0.00 in
23:34 41.3 °F 29.6 °F 29.94 in West 7.0 mph 13.0 mph 63% 0.00 in
23:39 41.0 °F 29.7 °F 29.94 in West 7.0 mph 18.0 mph 64% 0.00 in
23:44 40.9 °F 29.7 °F 29.94 in West 10.0 mph 14.0 mph 64% 0.00 in
23:49 40.7 °F 29.5 °F 29.93 in West 6.0 mph 13.0 mph 64% 0.00 in
23:54 40.4 °F 29.2 °F 29.93 in West 6.0 mph 14.0 mph 64% 0.00 in
23:59 40.2 °F 29.0 °F 29.93 in WSW 8.0 mph 13.0 mph 64% 0.00 in
Buffalo, New York, USA
Compliments of Weather Underground - 2.5 mb